createdAt,value
2019-05-23T00:00:59.040Z,13.44
2019-05-23T00:03:30.886Z,13.42
2019-05-23T00:06:02.307Z,13.44
2019-05-23T00:08:32.321Z,13.39
2019-05-23T00:11:21.886Z,13.37
2019-05-23T00:13:54.650Z,13.38
2019-05-23T00:16:24.395Z,13.36
2019-05-23T00:18:56.287Z,13.29
2019-05-23T00:21:26.216Z,13.15
2019-05-23T00:23:58.273Z,13.08
2019-05-23T00:26:29.477Z,13.04
2019-05-23T00:29:09.446Z,13.06
2019-05-23T00:31:50.150Z,13.02
2019-05-23T00:34:21.521Z,13.02
2019-05-23T00:36:52.167Z,12.97
2019-05-23T00:39:23.887Z,12.93
2019-05-23T00:41:54.553Z,12.91
2019-05-23T00:44:24.874Z,12.83
2019-05-23T00:46:54.743Z,12.76
2019-05-23T00:49:25.069Z,12.75
2019-05-23T00:51:54.627Z,12.73
2019-05-23T00:54:24.966Z,12.73
2019-05-23T00:56:54.879Z,12.71
2019-05-23T00:59:27.546Z,12.68
2019-05-23T01:01:57.642Z,12.65
2019-05-23T01:04:28.324Z,12.62
2019-05-23T01:06:58.266Z,12.57
2019-05-23T01:09:28.663Z,12.57
2019-05-23T01:11:58.497Z,12.54
2019-05-23T01:14:28.845Z,12.50
2019-05-23T01:16:59.145Z,12.45
2019-05-23T01:19:29.091Z,12.43
2019-05-23T01:22:00.519Z,12.41
2019-05-23T01:24:36.313Z,12.43
2019-05-23T01:27:07.297Z,12.39
2019-05-23T01:29:49.569Z,12.35
2019-05-23T01:32:26.489Z,12.32
2019-05-23T01:34:56.889Z,12.27
2019-05-23T01:37:26.634Z,12.23
2019-05-23T01:39:56.694Z,12.20
2019-05-23T01:42:28.389Z,12.21
2019-05-23T01:44:59.446Z,12.21
2019-05-23T01:47:29.359Z,12.15
2019-05-23T01:50:00.038Z,12.14
2019-05-23T01:52:30.359Z,12.12
2019-05-23T01:55:01.045Z,12.09
2019-05-23T01:57:31.825Z,12.09
2019-05-23T02:00:09.732Z,12.14
2019-05-23T02:02:36.093Z,12.11
2019-05-23T02:05:08.793Z,12.07
2019-05-23T02:07:38.593Z,12.00
2019-05-23T02:10:12.625Z,11.97
2019-05-23T02:12:43.001Z,11.96
2019-05-23T02:15:14.152Z,11.87
2019-05-23T02:17:43.785Z,11.81
2019-05-23T02:20:16.461Z,11.77
2019-05-23T02:22:47.014Z,11.74
2019-05-23T02:25:17.629Z,11.65
2019-05-23T02:27:48.545Z,11.64
2019-05-23T02:30:33.815Z,11.62
2019-05-23T02:32:54.322Z,11.60
2019-05-23T02:35:24.554Z,11.56
2019-05-23T02:38:04.640Z,11.57
2019-05-23T02:40:35.982Z,11.50
2019-05-23T02:43:13.145Z,11.49
2019-05-23T02:45:49.489Z,11.46
2019-05-23T02:48:36.047Z,11.44
2019-05-23T02:51:26.460Z,11.36
2019-05-23T02:53:56.830Z,11.38
2019-05-23T02:56:28.811Z,11.35
2019-05-23T02:59:35.513Z,11.36
2019-05-23T03:02:54.992Z,11.34
2019-05-23T03:05:26.181Z,11.40
2019-05-23T03:07:58.507Z,11.45
2019-05-23T03:10:32.995Z,11.52
2019-05-23T03:13:05.372Z,11.58
2019-05-23T03:15:37.097Z,11.56
2019-05-23T03:18:08.781Z,11.48
2019-05-23T03:20:38.467Z,11.39
2019-05-23T03:23:16.118Z,11.32
2019-05-23T03:25:57.699Z,11.30
2019-05-23T03:28:30.769Z,11.28
2019-05-23T03:31:26.885Z,11.25
2019-05-23T03:33:38.350Z,11.18
2019-05-23T03:36:08.411Z,11.17
2019-05-23T03:38:38.141Z,11.17
2019-05-23T03:41:08.524Z,11.17
2019-05-23T03:43:39.417Z,11.19
2019-05-23T03:46:13.418Z,11.13
2019-05-23T03:48:43.337Z,11.03
2019-05-23T03:51:13.662Z,10.96
2019-05-23T03:53:45.535Z,10.91
2019-05-23T03:56:15.165Z,10.91
2019-05-23T03:58:45.164Z,10.89
2019-05-23T04:01:19.233Z,10.88
2019-05-23T04:03:50.720Z,10.87
2019-05-23T04:06:21.390Z,10.87
2019-05-23T04:08:51.545Z,10.85
2019-05-23T04:11:22.698Z,10.83
2019-05-23T04:13:53.028Z,10.82
2019-05-23T04:16:22.886Z,10.85
2019-05-23T04:18:52.553Z,10.86
2019-05-23T04:21:26.749Z,10.91
2019-05-23T04:23:57.119Z,10.94
2019-05-23T04:26:26.917Z,11.00
2019-05-23T04:28:57.493Z,11.05
2019-05-23T04:31:28.460Z,11.10
2019-05-23T04:33:58.382Z,11.15
2019-05-23T04:36:27.998Z,11.21
2019-05-23T04:38:57.748Z,11.26
2019-05-23T04:41:27.689Z,11.33
2019-05-23T04:44:00.553Z,11.36
2019-05-23T04:46:31.253Z,11.43
2019-05-23T04:49:00.876Z,11.50
2019-05-23T04:51:31.000Z,11.54
2019-05-23T04:54:02.002Z,11.61
2019-05-23T04:56:32.044Z,11.65
2019-05-23T04:59:04.381Z,11.73
2019-05-23T05:01:34.339Z,11.76
2019-05-23T05:04:06.227Z,11.76
2019-05-23T05:06:35.923Z,11.80
2019-05-23T05:09:08.960Z,11.84
2019-05-23T05:11:39.063Z,11.92
2019-05-23T05:14:08.906Z,11.98
2019-05-23T05:16:38.629Z,12.02
2019-05-23T05:19:09.157Z,12.07
2019-05-23T05:21:38.917Z,12.13
2019-05-23T05:24:08.720Z,12.15
2019-05-23T05:26:40.451Z,12.18
2019-05-23T05:29:10.524Z,12.23
2019-05-23T05:31:40.132Z,12.26
2019-05-23T05:34:10.538Z,12.28
2019-05-23T05:36:41.054Z,12.27
2019-05-23T05:39:12.513Z,12.32
2019-05-23T05:41:42.779Z,12.40
2019-05-23T05:44:13.289Z,12.49
2019-05-23T05:46:43.385Z,12.54
2019-05-23T05:49:13.844Z,12.64
2019-05-23T05:51:43.780Z,12.65
2019-05-23T05:54:13.646Z,12.67
2019-05-23T05:56:43.327Z,12.80
2019-05-23T05:59:13.231Z,12.94
2019-05-23T06:01:43.431Z,12.94
2019-05-23T06:04:13.263Z,13.00
2019-05-23T06:06:44.561Z,13.11
2019-05-23T06:09:15.926Z,13.17
2019-05-23T06:11:45.922Z,13.38
2019-05-23T06:14:16.284Z,13.57
2019-05-23T06:16:46.325Z,13.78
2019-05-23T06:19:15.997Z,14.04
2019-05-23T06:21:46.825Z,14.43
2019-05-23T06:24:16.760Z,14.83
2019-05-23T06:26:46.806Z,15.13
2019-05-23T06:29:16.510Z,15.43
2019-05-23T06:31:46.290Z,15.80
2019-05-23T06:34:16.364Z,16.07
2019-05-23T06:36:46.702Z,16.27
2019-05-23T06:39:17.491Z,16.57
2019-05-23T06:41:47.401Z,16.85
2019-05-23T06:44:18.560Z,17.21
2019-05-23T06:46:48.717Z,17.35
2019-05-23T06:49:18.288Z,17.45
2019-05-23T06:51:48.017Z,17.64
2019-05-23T06:54:18.197Z,17.90
2019-05-23T06:56:47.837Z,18.01
2019-05-23T06:59:20.318Z,18.14
2019-05-23T07:01:50.421Z,18.05
2019-05-23T07:04:20.520Z,17.99
2019-05-23T07:06:50.155Z,18.18
2019-05-23T07:09:20.435Z,18.34
2019-05-23T07:11:52.602Z,18.31
2019-05-23T07:14:22.362Z,18.45
2019-05-23T07:16:51.967Z,18.66
2019-05-23T07:19:21.971Z,18.87
2019-05-23T07:21:51.539Z,18.84
2019-05-23T07:24:21.489Z,18.89
2019-05-23T07:26:51.349Z,19.10
2019-05-23T07:29:20.969Z,19.22
2019-05-23T07:31:52.401Z,19.30
2019-05-23T07:34:22.289Z,19.47
2019-05-23T07:36:51.907Z,19.65
2019-05-23T07:39:21.694Z,19.88
2019-05-23T07:41:51.524Z,20.02
2019-05-23T07:44:21.443Z,20.03
2019-05-23T07:46:51.878Z,20.02
2019-05-23T07:49:21.491Z,20.17
2019-05-23T07:51:51.575Z,20.11
2019-05-23T07:54:25.695Z,20.15
2019-05-23T07:56:55.529Z,20.35
2019-05-23T07:59:25.736Z,20.62
2019-05-23T08:02:10.386Z,20.60
2019-05-23T08:04:40.697Z,20.51
2019-05-23T08:07:11.389Z,20.49
2019-05-23T08:09:40.999Z,20.68
2019-05-23T08:12:10.638Z,20.60
2019-05-23T08:14:40.452Z,20.48
2019-05-23T08:17:13.189Z,20.91
2019-05-23T08:19:49.552Z,20.93
2019-05-23T08:22:14.194Z,20.76
2019-05-23T08:24:44.754Z,20.86
2019-05-23T08:27:14.809Z,21.06
2019-05-23T08:29:45.635Z,20.98
2019-05-23T08:32:15.712Z,21.01
2019-05-23T08:34:45.707Z,21.49
2019-05-23T08:37:15.253Z,21.76
2019-05-23T08:39:45.354Z,21.90
2019-05-23T08:42:15.398Z,21.83
2019-05-23T08:44:45.630Z,21.55
2019-05-23T08:47:15.396Z,21.33
2019-05-23T08:49:46.310Z,21.45
2019-05-23T08:52:16.005Z,21.42
2019-05-23T08:54:46.298Z,21.33
2019-05-23T08:57:17.846Z,21.31
2019-05-23T08:59:47.618Z,21.58
2019-05-23T09:02:17.956Z,21.87
2019-05-23T09:05:03.392Z,22.13
2019-05-23T09:07:22.216Z,22.26
2019-05-23T09:09:52.376Z,22.32
2019-05-23T09:12:22.479Z,22.43
2019-05-23T09:14:52.925Z,22.23
2019-05-23T09:17:24.127Z,21.98
2019-05-23T09:19:53.880Z,21.63
2019-05-23T09:22:25.081Z,21.89
2019-05-23T09:24:55.039Z,22.05
2019-05-23T09:27:24.644Z,22.31
2019-05-23T09:29:54.212Z,22.17
2019-05-23T09:32:24.167Z,22.15
2019-05-23T09:34:53.834Z,21.78
2019-05-23T09:37:23.683Z,21.61
2019-05-23T09:39:54.243Z,21.91
2019-05-23T09:42:23.865Z,22.17
2019-05-23T09:44:53.697Z,22.41
2019-05-23T09:47:23.653Z,22.73
2019-05-23T09:49:54.514Z,22.77
2019-05-23T09:52:25.244Z,23.06
2019-05-23T09:54:58.848Z,23.24
2019-05-23T09:57:29.088Z,23.09
2019-05-23T09:59:59.060Z,22.60
2019-05-23T10:02:30.114Z,22.40
2019-05-23T10:05:00.013Z,22.07
2019-05-23T10:07:29.659Z,22.14
2019-05-23T10:10:00.119Z,22.09
2019-05-23T10:12:30.280Z,21.98
2019-05-23T10:15:00.068Z,21.68
2019-05-23T10:17:29.977Z,21.87
2019-05-23T10:19:59.870Z,22.07
2019-05-23T10:22:29.407Z,22.37
2019-05-23T10:25:01.407Z,22.58
2019-05-23T10:27:30.935Z,22.75
2019-05-23T10:30:00.695Z,22.87
2019-05-23T10:32:30.534Z,22.67
2019-05-23T10:35:00.239Z,22.41
2019-05-23T10:37:30.119Z,22.26
2019-05-23T10:40:00.035Z,22.38
2019-05-23T10:42:29.698Z,22.17
2019-05-23T10:45:00.524Z,22.19
2019-05-23T10:47:32.120Z,22.20
2019-05-23T10:50:07.663Z,22.23
2019-05-23T10:52:35.137Z,22.26
2019-05-23T10:55:06.389Z,22.38
2019-05-23T10:57:36.018Z,22.51
2019-05-23T11:00:08.116Z,22.63
2019-05-23T11:02:39.487Z,22.68
2019-05-23T11:05:13.406Z,22.76
2019-05-23T11:07:43.848Z,22.81
2019-05-23T11:10:17.031Z,22.81
2019-05-23T11:12:47.208Z,22.86
2019-05-23T11:15:18.173Z,22.94
2019-05-23T11:17:53.027Z,23.08
2019-05-23T11:20:21.955Z,23.01
2019-05-23T11:22:53.351Z,22.92
2019-05-23T11:25:24.002Z,22.88
2019-05-23T11:27:55.341Z,22.85
2019-05-23T11:30:27.159Z,22.86
2019-05-23T11:32:57.738Z,22.99
2019-05-23T11:35:27.864Z,22.92
2019-05-23T11:37:59.197Z,22.82
2019-05-23T11:40:28.761Z,22.79
2019-05-23T11:43:00.269Z,22.59
2019-05-23T11:45:31.630Z,22.30
2019-05-23T11:48:01.216Z,22.32
2019-05-23T11:50:30.981Z,22.47
2019-05-23T11:53:02.021Z,22.51
2019-05-23T11:55:31.590Z,22.67
2019-05-23T11:58:01.211Z,22.62
2019-05-23T12:00:47.885Z,22.56
2019-05-23T12:03:18.804Z,22.67
2019-05-23T12:05:49.302Z,22.71
2019-05-23T12:08:22.395Z,22.72
2019-05-23T12:10:52.822Z,22.54
2019-05-23T12:13:22.511Z,22.32
2019-05-23T12:15:52.792Z,22.32
2019-05-23T12:18:22.647Z,22.12
2019-05-23T12:20:52.536Z,22.20
2019-05-23T12:23:23.489Z,22.23
2019-05-23T12:25:53.696Z,22.27
2019-05-23T12:28:25.946Z,22.21
2019-05-23T12:30:56.141Z,22.28
2019-05-23T12:33:25.787Z,22.17
2019-05-23T12:35:55.430Z,22.15
2019-05-23T12:38:25.457Z,22.18
2019-05-23T12:40:55.007Z,22.13
2019-05-23T12:43:24.873Z,22.10
2019-05-23T12:45:54.452Z,22.24
2019-05-23T12:48:26.773Z,22.40
2019-05-23T12:51:10.107Z,22.46
2019-05-23T12:53:39.641Z,22.54
2019-05-23T12:56:10.393Z,22.49
2019-05-23T12:58:41.680Z,22.48
2019-05-23T13:01:14.116Z,22.47
2019-05-23T13:03:44.883Z,22.57
2019-05-23T13:06:14.709Z,22.64
2019-05-23T13:08:44.257Z,22.43
2019-05-23T13:11:14.003Z,22.41
2019-05-23T13:13:43.968Z,22.32
2019-05-23T13:16:13.697Z,22.29
2019-05-23T13:18:43.276Z,22.28
2019-05-23T13:21:14.890Z,22.19
2019-05-23T13:23:45.054Z,22.13
2019-05-23T13:26:15.000Z,22.02
2019-05-23T13:28:44.719Z,22.04
2019-05-23T13:31:14.338Z,22.13
2019-05-23T13:33:44.096Z,22.17
2019-05-23T13:36:13.715Z,22.13
2019-05-23T13:38:43.626Z,22.11
2019-05-23T13:41:13.687Z,22.18
2019-05-23T13:43:43.681Z,22.22
2019-05-23T13:46:14.030Z,22.24
2019-05-23T13:48:43.999Z,22.20
2019-05-23T13:51:13.862Z,22.23
2019-05-23T13:53:43.487Z,22.34
2019-05-23T13:56:14.972Z,22.46
2019-05-23T13:58:45.369Z,22.49
2019-05-23T14:01:15.582Z,22.56
2019-05-23T14:03:45.161Z,22.62
2019-05-23T14:06:14.853Z,22.55
2019-05-23T14:08:44.644Z,22.57
2019-05-23T14:11:15.278Z,22.65
2019-05-23T14:13:46.047Z,22.69
2019-05-23T14:16:15.978Z,22.76
2019-05-23T14:18:45.711Z,22.75
2019-05-23T14:21:15.502Z,22.73
2019-05-23T14:23:45.232Z,22.70
2019-05-23T14:26:16.420Z,22.76
2019-05-23T14:28:46.204Z,22.78
2019-05-23T14:31:17.386Z,22.75
2019-05-23T14:33:48.797Z,22.79
2019-05-23T14:36:36.680Z,22.79
2019-05-23T14:39:10.565Z,22.81
2019-05-23T14:41:51.644Z,22.79
2019-05-23T14:44:21.781Z,22.76
2019-05-23T14:46:55.417Z,22.81
2019-05-23T14:49:27.315Z,22.86
2019-05-23T14:52:01.021Z,22.81
2019-05-23T14:54:32.566Z,22.83
2019-05-23T14:57:02.112Z,22.83
2019-05-23T14:59:32.124Z,22.83
2019-05-23T15:02:02.668Z,22.90
2019-05-23T15:04:32.447Z,22.92
2019-05-23T15:07:02.243Z,22.74
2019-05-23T15:09:33.748Z,22.72
2019-05-23T15:12:03.651Z,22.80
2019-05-23T15:14:33.282Z,22.78
2019-05-23T15:17:04.591Z,22.84
2019-05-23T15:19:42.051Z,22.84
2019-05-23T15:22:05.746Z,22.84
2019-05-23T15:24:35.505Z,22.94
2019-05-23T15:27:05.548Z,23.00
2019-05-23T15:29:35.236Z,23.01
2019-05-23T15:32:05.855Z,23.02
2019-05-23T15:34:35.667Z,23.10
2019-05-23T15:37:05.433Z,23.13
2019-05-23T15:39:35.859Z,23.19
2019-05-23T15:42:05.877Z,23.19
2019-05-23T15:44:35.879Z,23.20
2019-05-23T15:47:06.165Z,23.09
2019-05-23T15:49:36.319Z,23.05
2019-05-23T15:52:24.008Z,22.94
2019-05-23T15:55:10.973Z,22.91
2019-05-23T15:57:42.275Z,22.98
2019-05-23T16:00:12.251Z,23.03
2019-05-23T16:02:46.893Z,23.10
2019-05-23T16:05:21.649Z,23.16
2019-05-23T16:07:53.402Z,23.26
2019-05-23T16:10:24.830Z,23.26
2019-05-23T16:12:54.360Z,23.24
2019-05-23T16:15:24.604Z,23.23
2019-05-23T16:17:54.222Z,23.18
2019-05-23T16:20:24.521Z,23.08
2019-05-23T16:22:54.138Z,22.98
2019-05-23T16:25:24.345Z,22.91
2019-05-23T16:27:56.155Z,22.98
2019-05-23T16:30:25.927Z,22.96
2019-05-23T16:32:55.641Z,23.00
2019-05-23T16:35:25.655Z,23.01
2019-05-23T16:37:55.352Z,22.98
2019-05-23T16:40:25.350Z,22.89
2019-05-23T16:42:57.006Z,22.89
2019-05-23T16:45:26.685Z,22.91
2019-05-23T16:47:56.445Z,22.95
2019-05-23T16:50:26.102Z,22.89
2019-05-23T16:52:57.642Z,22.81
2019-05-23T16:55:34.909Z,22.80
2019-05-23T16:58:18.462Z,22.72
2019-05-23T17:01:06.324Z,22.67
2019-05-23T17:03:38.073Z,22.62
2019-05-23T17:06:09.327Z,22.56
2019-05-23T17:08:50.958Z,22.45
2019-05-23T17:11:32.368Z,22.30
2019-05-23T17:14:06.355Z,22.32
2019-05-23T17:16:40.245Z,22.32
2019-05-23T17:19:10.928Z,22.34
2019-05-23T17:21:46.609Z,22.31
2019-05-23T17:24:18.631Z,22.25
2019-05-23T17:27:00.313Z,22.29
2019-05-23T17:29:40.654Z,22.33
2019-05-23T17:32:12.189Z,22.28
2019-05-23T17:34:41.981Z,22.30
2019-05-23T17:37:12.486Z,22.30
2019-05-23T17:39:43.907Z,22.34
2019-05-23T17:42:13.940Z,22.33
2019-05-23T17:44:44.891Z,22.27
2019-05-23T17:47:14.889Z,22.27
2019-05-23T17:49:45.148Z,22.17
2019-05-23T17:52:16.279Z,22.22
2019-05-23T17:54:47.891Z,22.15
2019-05-23T17:57:17.689Z,22.16
2019-05-23T17:59:49.191Z,22.15
2019-05-23T18:02:19.251Z,22.15
2019-05-23T18:04:48.994Z,22.12
2019-05-23T18:07:18.611Z,22.11
2019-05-23T18:09:48.995Z,22.09
2019-05-23T18:12:22.216Z,22.00
2019-05-23T18:14:53.158Z,21.98
2019-05-23T18:17:22.746Z,21.95
2019-05-23T18:19:52.765Z,21.90
2019-05-23T18:22:22.525Z,21.88
2019-05-23T18:24:52.537Z,21.81
2019-05-23T18:27:24.419Z,21.80
2019-05-23T18:29:55.784Z,21.79
2019-05-23T18:32:27.326Z,21.79
2019-05-23T18:34:57.723Z,21.78
2019-05-23T18:37:27.564Z,21.77
2019-05-23T18:39:57.206Z,21.74
2019-05-23T18:42:26.905Z,21.72
2019-05-23T18:44:56.718Z,21.71
2019-05-23T18:47:27.928Z,21.67
2019-05-23T18:49:58.721Z,21.68
2019-05-23T18:52:29.465Z,21.65
2019-05-23T18:54:59.075Z,21.63
2019-05-23T18:57:29.143Z,21.57
2019-05-23T18:59:59.212Z,21.51
2019-05-23T19:02:29.240Z,21.50
2019-05-23T19:04:59.833Z,21.48
2019-05-23T19:07:29.511Z,21.44
2019-05-23T19:09:59.357Z,21.40
2019-05-23T19:12:29.323Z,21.37
2019-05-23T19:15:00.258Z,21.34
2019-05-23T19:17:30.879Z,21.28
2019-05-23T19:20:00.449Z,21.28
2019-05-23T19:22:30.228Z,21.21
2019-05-23T19:25:00.181Z,21.17
2019-05-23T19:27:31.028Z,21.09
2019-05-23T19:30:00.722Z,20.87
2019-05-23T19:32:30.879Z,20.68
2019-05-23T19:35:01.496Z,20.71
2019-05-23T19:37:31.261Z,20.67
2019-05-23T19:40:02.556Z,20.62
2019-05-23T19:42:32.761Z,20.61
2019-05-23T19:45:03.025Z,20.55
2019-05-23T19:47:32.641Z,20.49
2019-05-23T19:50:02.244Z,20.42
2019-05-23T19:52:32.284Z,20.35
2019-05-23T19:55:02.451Z,20.25
2019-05-23T19:57:32.204Z,20.21
2019-05-23T20:00:02.533Z,20.18
2019-05-23T20:02:39.996Z,20.08
2019-05-23T20:05:13.444Z,19.98
2019-05-23T20:07:43.460Z,19.80
2019-05-23T20:10:14.300Z,19.74
2019-05-23T20:12:43.935Z,19.58
2019-05-23T20:15:14.428Z,19.58
2019-05-23T20:17:44.104Z,19.56
2019-05-23T20:20:14.352Z,19.53
2019-05-23T20:22:44.076Z,19.47
2019-05-23T20:25:14.606Z,19.38
2019-05-23T20:27:44.337Z,19.38
2019-05-23T20:30:44.062Z,19.35
2019-05-23T20:33:13.999Z,19.33
2019-05-23T20:35:44.301Z,19.25
2019-05-23T20:38:14.178Z,19.21
2019-05-23T20:40:43.755Z,19.14
2019-05-23T20:43:15.741Z,19.12
2019-05-23T20:45:48.415Z,19.15
2019-05-23T20:48:21.139Z,19.14
2019-05-23T20:50:56.297Z,19.13
2019-05-23T20:53:30.123Z,19.08
2019-05-23T20:56:02.980Z,19.03
2019-05-23T20:58:32.820Z,19.01
2019-05-23T21:01:06.643Z,18.98
2019-05-23T21:07:37.053Z,18.90
2019-05-23T21:10:09.204Z,18.82
2019-05-23T21:12:39.011Z,18.80
2019-05-23T21:15:12.270Z,18.75
2019-05-23T21:17:42.072Z,18.69
2019-05-23T21:20:11.678Z,18.63
2019-05-23T21:22:41.227Z,18.58
2019-05-23T21:25:11.400Z,18.52
2019-05-23T21:27:41.121Z,18.48
2019-05-23T21:30:10.991Z,18.44
2019-05-23T21:32:40.862Z,18.35
2019-05-23T21:35:10.710Z,18.35
2019-05-23T21:37:40.436Z,18.30
2019-05-23T21:40:31.540Z,18.22
2019-05-23T21:43:01.190Z,18.19
2019-05-23T21:45:30.848Z,18.11
2019-05-23T21:48:00.368Z,18.08
2019-05-23T21:50:29.995Z,18.06
2019-05-23T21:52:59.641Z,18.01
2019-05-23T21:55:41.730Z,17.98
2019-05-23T21:58:13.509Z,17.96
2019-05-23T22:01:05.594Z,17.86
2019-05-23T22:03:52.260Z,17.82
2019-05-23T22:06:25.137Z,17.78
2019-05-23T22:08:54.881Z,17.73
2019-05-23T22:11:25.164Z,17.70
2019-05-23T22:13:54.730Z,17.67
2019-05-23T22:16:24.568Z,17.63
2019-05-23T22:18:54.138Z,17.63
2019-05-23T22:21:23.704Z,17.62
2019-05-23T22:23:53.788Z,17.65
2019-05-23T22:26:23.342Z,17.67
2019-05-23T22:28:52.987Z,17.69
2019-05-23T22:31:22.545Z,17.69
2019-05-23T22:34:02.901Z,17.66
2019-05-23T22:36:32.459Z,17.60
2019-05-23T22:39:02.463Z,17.58
2019-05-23T22:41:32.604Z,17.53
2019-05-23T22:44:02.231Z,17.47
2019-05-23T22:46:32.146Z,17.40
2019-05-23T22:49:01.675Z,17.37
2019-05-23T22:51:31.393Z,17.30
2019-05-23T22:54:00.934Z,17.29
2019-05-23T22:56:30.511Z,17.23
2019-05-23T22:59:00.044Z,17.07
2019-05-23T23:01:30.654Z,17.01
2019-05-23T23:04:00.529Z,16.99
2019-05-23T23:06:30.849Z,16.87
2019-05-23T23:09:01.419Z,16.68
2019-05-23T23:11:31.046Z,16.57
2019-05-23T23:14:00.600Z,16.54
2019-05-23T23:16:30.166Z,16.49
2019-05-23T23:18:59.907Z,16.47
2019-05-23T23:21:29.883Z,16.43
2019-05-23T23:23:59.475Z,16.37
2019-05-23T23:26:29.028Z,16.32
2019-05-23T23:28:58.769Z,16.27
2019-05-23T23:31:28.329Z,16.24
2019-05-23T23:33:58.451Z,16.24
2019-05-23T23:36:28.226Z,16.30
2019-05-23T23:38:57.782Z,16.30
2019-05-23T23:41:27.534Z,16.33
2019-05-23T23:43:59.660Z,16.28
2019-05-23T23:46:46.335Z,16.18
2019-05-23T23:49:33.572Z,16.10
2019-05-23T23:52:20.941Z,16.06
2019-05-23T23:55:08.569Z,16.03
2019-05-23T23:57:55.953Z,15.87
